KRKR/RKR METAR and TAF weather

Enter ICAO airport designator
Station Type Date Time Source
KRKR METAR 2023/02/04 03:15 UTC NOAA

KRKR 040315Z AUTO 00000KT 4SM BR CLR 00/00 A3049 RMK AO2


Station Type Date Time Source
KRKR Decoded METAR 2023/02/04 03:15 UTC NOAA

Poteau, Robert S Kerr Airport, OK, United States (KRKR) 35-01-18N 094-37-17W
Feb 03, 2023 - 10:15 PM EST / 2023.02.04 0315 UTC
Wind: Calm:0
Visibility: 4 mile(s):0
Sky conditions: clear
Weather: mist
Temperature: 32 F (0 C)
Dew Point: 32 F (0 C)
Relative Humidity: 100%
Pressure (altimeter): 30.49 in. Hg (1032 hPa)
ob: KRKR 040315Z AUTO 00000KT 4SM BR CLR 00/00 A3049 RMK AO2
cycle: 3

Station Type Date Time Source
KRKR TAF UTC NOAA

Error!

Example: see airport list